Time;durP1;ratioP1;P1;durP2;ratioP2;P2;SDS_P1;SDS_P2;PMS_P1;PMS_P2;Temp;Humidity;BMP_temperature;BMP_pressure;BME280_temperature;BME280_humidity;BME280_pressure;Samples;Min_cycle;Max_cycle;Signal;HPM_P1;HPM_P2
2021/06/01 00:00:37;;;;;;;5.25;2.53;;;;;;;12.20;74.35;98534.75;5113562;28;20031;-82
2021/06/01 00:03:02;;;;;;;2.17;1.90;;;;;;;12.18;74.19;98536.94;5092846;28;20034;-77
2021/06/01 00:05:28;;;;;;;3.75;2.47;;;;;;;12.20;73.10;98550.06;5091984;28;20055;-79
2021/06/01 00:07:53;;;;;;;2.45;2.25;;;;;;;12.20;73.58;98542.00;5095062;28;20108;-80
2021/06/01 00:10:19;;;;;;;2.63;1.83;;;;;;;12.20;73.28;98548.16;5111163;28;20042;-78
2021/06/01 00:12:44;;;;;;;3.60;2.67;;;;;;;12.20;73.55;98537.44;5111594;28;20054;-79
2021/06/01 00:15:10;;;;;;;3.70;2.20;;;;;;;12.20;73.75;98540.13;5111706;28;20019;-79
2021/06/01 00:17:37;;;;;;;2.63;2.20;;;;;;;12.20;73.17;98534.75;5112824;28;20019;-79
2021/06/01 00:20:05;;;;;;;3.53;2.03;;;;;;;12.21;72.80;98538.25;5112828;28;20034;-78
2021/06/01 00:22:30;;;;;;;5.93;2.22;;;;;;;12.19;72.49;98533.16;5097037;28;20024;-86
2021/06/01 00:24:56;;;;;;;2.65;2.10;;;;;;;12.19;72.31;98535.06;5112504;28;20049;-87
2021/06/01 00:27:21;;;;;;;2.10;1.75;;;;;;;12.18;71.98;98531.56;5112772;28;20031;-87
2021/06/01 00:29:47;;;;;;;3.50;1.92;;;;;;;12.16;71.16;98528.41;5114204;28;20312;-85
2021/06/01 00:32:12;;;;;;;3.15;1.85;;;;;;;12.14;71.90;98522.56;5108558;28;20089;-80
2021/06/01 00:34:38;;;;;;;2.60;2.40;;;;;;;12.12;71.56;98525.53;5091235;28;20481;-78
2021/06/01 00:37:03;;;;;;;2.38;1.73;;;;;;;12.09;71.61;98526.13;5091253;28;20080;-79
2021/06/01 00:39:29;;;;;;;1.60;1.50;;;;;;;12.05;71.59;98522.47;5091985;28;20032;-79
2021/06/01 00:41:54;;;;;;;2.67;1.77;;;;;;;12.04;71.34;98522.78;5102822;28;20027;-79
2021/06/01 00:44:20;;;;;;;2.53;1.90;;;;;;;11.94;70.80;98521.06;5111835;28;20129;-80
2021/06/01 00:46:45;;;;;;;2.03;1.83;;;;;;;11.90;71.01;98520.84;5110609;28;20015;-78
2021/06/01 00:49:11;;;;;;;2.45;2.05;;;;;;;11.85;70.99;98519.06;5110868;28;20024;-82
2021/06/01 00:51:36;;;;;;;2.38;2.17;;;;;;;11.84;71.03;98520.16;5110624;28;20015;-83
2021/06/01 00:54:03;;;;;;;2.17;1.75;;;;;;;11.81;71.42;98519.94;5111415;28;20022;-81
2021/06/01 00:56:31;;;;;;;1.95;1.85;;;;;;;11.78;71.27;98523.19;5112916;28;20023;-84
2021/06/01 00:58:57;;;;;;;1.70;1.60;;;;;;;11.78;71.35;98524.00;5113043;28;20038;-80
2021/06/01 01:01:22;;;;;;;1.92;1.75;;;;;;;11.76;71.08;98518.16;5111077;28;20038;-82
2021/06/01 01:03:50;;;;;;;1.63;1.52;;;;;;;11.75;70.82;98515.78;5111684;28;20023;-78
2021/06/01 01:06:32;;;;;;;1.80;1.70;;;;;;;11.70;70.04;98508.63;5110958;28;20016;-87
2021/06/01 01:09:01;;;;;;;2.92;2.28;;;;;;;11.65;70.11;98509.50;5110424;28;20035;-83
2021/06/01 01:11:35;;;;;;;1.73;1.63;;;;;;;11.64;70.42;98517.84;5111347;28;20102;-83
2021/06/01 01:14:26;;;;;;;2.05;1.80;;;;;;;11.64;70.49;98512.47;5110840;28;20035;-84
2021/06/01 01:17:01;;;;;;;1.55;1.45;;;;;;;11.63;70.28;98513.56;5110323;28;20121;-83
2021/06/01 01:19:48;;;;;;;1.63;1.50;;;;;;;11.63;70.40;98519.75;5110221;28;20122;-83
2021/06/01 01:22:15;;;;;;;3.70;1.80;;;;;;;11.61;69.65;98513.06;5110048;28;20026;-80
2021/06/01 01:25:07;;;;;;;3.42;2.10;;;;;;;11.58;70.80;98505.63;5110044;28;20035;-80
2021/06/01 01:27:51;;;;;;;2.00;1.73;;;;;;;11.58;70.13;98516.34;5109180;28;20031;-82
2021/06/01 01:30:18;;;;;;;1.45;1.35;;;;;;;11.54;70.56;98518.81;5109819;28;20536;-78
2021/06/01 01:32:53;;;;;;;2.10;1.88;;;;;;;11.50;70.65;98502.53;5110532;28;20019;-79
2021/06/01 01:35:20;;;;;;;1.60;1.50;;;;;;;11.50;71.01;98507.91;5110057;28;20467;-82
2021/06/01 01:37:46;;;;;;;1.70;1.60;;;;;;;11.51;70.70;98506.81;5110030;28;20019;-78
2021/06/01 01:40:14;;;;;;;1.70;1.50;;;;;;;11.50;70.41;98507.91;5110102;28;20057;-78
2021/06/01 01:42:46;;;;;;;2.72;1.80;;;;;;;11.50;70.52;98510.56;5108730;28;20122;-77
2021/06/01 01:45:26;;;;;;;1.40;1.30;;;;;;;11.49;71.02;98506.31;5110052;28;20534;-77
2021/06/01 01:50:41;;;;;;;1.73;1.63;;;;;;;11.46;69.95;98503.44;5110736;28;20031;-77
2021/06/01 01:53:12;;;;;;;1.90;1.80;;;;;;;11.43;69.51;98501.34;5111045;28;20023;-77
2021/06/01 01:55:38;;;;;;;1.77;1.67;;;;;;;11.37;70.15;98504.09;5108989;28;20024;-79
2021/06/01 01:58:04;;;;;;;2.92;1.80;;;;;;;11.34;70.10;98502.03;5109624;28;20023;-77
2021/06/01 02:00:32;;;;;;;4.85;1.65;;;;;;;11.35;70.13;98503.63;5109734;28;20026;-79
2021/06/01 02:02:58;;;;;;;1.85;1.67;;;;;;;11.30;70.33;98495.69;5109726;28;20023;-77
2021/06/01 02:05:24;;;;;;;3.22;1.65;;;;;;;11.28;70.44;98500.53;5109659;28;20046;-76
2021/06/01 02:07:50;;;;;;;2.17;1.48;;;;;;;11.24;70.10;98496.03;5110760;28;20051;-78
2021/06/01 02:10:16;;;;;;;3.33;1.75;;;;;;;11.21;70.27;98490.19;5109035;28;20027;-77
2021/06/01 02:12:42;;;;;;;3.28;1.67;;;;;;;11.19;70.96;98499.59;5109422;28;20022;-80
2021/06/01 02:15:09;;;;;;;1.65;1.50;;;;;;;11.14;70.49;98491.66;5113008;28;20027;-81
2021/06/01 02:17:34;;;;;;;3.47;1.90;;;;;;;11.16;70.34;98495.63;5113410;28;20443;-82
2021/06/01 02:20:00;;;;;;;1.80;1.60;;;;;;;11.14;70.69;98495.13;5113634;28;20122;-80
2021/06/01 02:25:44;;;;;;;2.00;1.70;;;;;;;11.09;70.43;98500.56;5114354;28;20911;-86
2021/06/01 02:28:39;;;;;;;2.22;1.67;;;;;;;11.03;70.95;98499.88;5113335;28;20098;-84
2021/06/01 02:31:09;;;;;;;2.35;1.80;;;;;;;11.01;70.90;98494.00;5112533;28;20119;-81
2021/06/01 02:33:36;;;;;;;3.13;1.80;;;;;;;11.00;70.94;98494.31;5113126;28;20020;-85
2021/06/01 02:36:03;;;;;;;4.72;1.45;;;;;;;10.99;71.10;98490.81;5113270;28;20026;-84
2021/06/01 02:38:32;;;;;;;4.00;1.75;;;;;;;10.96;70.83;98490.59;5112864;28;20110;-81
2021/06/01 02:40:58;;;;;;;;;;;;;;;10.95;71.35;98489.00;5113660;28;20031;-83
2021/06/01 02:43:24;;;;;;;1.75;1.60;;;;;;;10.93;71.35;98488.53;5113021;28;19969;-83
2021/06/01 02:45:50;;;;;;;2.72;2.28;;;;;;;10.90;71.55;98487.22;5113267;28;20069;-85
2021/06/01 02:48:20;;;;;;;2.97;1.90;;;;;;;10.85;71.69;98488.09;5112484;28;20027;-85
2021/06/01 02:50:48;;;;;;;2.67;2.22;;;;;;;10.83;71.65;98484.91;5112990;28;20489;-84
2021/06/01 02:53:15;;;;;;;6.32;2.45;;;;;;;10.82;71.51;98487.88;5112144;28;20027;-85
2021/06/01 02:55:42;;;;;;;2.03;1.80;;;;;;;10.80;71.69;98490.03;5112759;28;20035;-83
2021/06/01 02:58:12;;;;;;;2.95;2.20;;;;;;;10.79;72.22;98493.81;5112975;28;20023;-83
2021/06/01 03:00:39;;;;;;;1.73;1.63;;;;;;;10.76;71.95;98503.19;5112749;28;20607;-86
2021/06/01 03:03:06;;;;;;;2.47;1.98;;;;;;;10.76;72.23;98495.19;5112386;28;20114;-88
2021/06/01 03:05:33;;;;;;;1.90;1.70;;;;;;;10.76;72.60;98500.53;5111893;28;20032;-85
2021/06/01 03:08:27;;;;;;;3.45;1.70;;;;;;;10.78;72.32;98498.38;5112893;28;20030;-81
2021/06/01 03:10:55;;;;;;;5.50;1.92;;;;;;;10.79;72.37;98499.16;5099696;28;20410;-79
2021/06/01 03:13:20;;;;;;;1.95;1.85;;;;;;;10.81;72.25;98505.00;5112560;28;20027;-80
2021/06/01 03:15:46;;;;;;;2.55;2.30;;;;;;;10.80;72.58;98498.06;5112324;28;20085;-85
2021/06/01 03:18:12;;;;;;;2.83;2.13;;;;;;;10.79;72.11;98501.81;5112068;28;20036;-81
2021/06/01 03:20:38;;;;;;;2.75;2.47;;;;;;;10.80;72.20;98496.22;5112446;28;20024;-86
2021/06/01 03:23:04;;;;;;;7.88;4.88;;;;;;;10.78;72.42;98506.41;5102687;28;20046;-86
2021/06/01 03:25:29;;;;;;;8.10;4.82;;;;;;;10.83;72.57;98500.97;5091679;28;20027;-88
2021/06/01 03:27:54;;;;;;;6.43;3.65;;;;;;;10.95;72.26;98494.34;5092079;28;20028;-81
2021/06/01 03:30:20;;;;;;;6.38;2.55;;;;;;;11.31;72.37;98504.50;5091938;28;20474;-78
2021/06/01 03:32:46;;;;;;;2.33;2.13;;;;;;;11.80;70.42;98504.94;5091592;28;20483;-81
2021/06/01 03:35:11;;;;;;;2.92;2.35;;;;;;;12.40;69.43;98495.22;5092796;28;20027;-82
2021/06/01 03:37:37;;;;;;;4.53;2.25;;;;;;;12.97;66.34;98494.72;5111509;28;20429;-83
2021/06/01 03:40:04;;;;;;;5.25;2.55;;;;;;;13.58;65.39;98500.47;5112193;28;20381;-83
2021/06/01 03:42:30;;;;;;;3.08;2.78;;;;;;;14.19;61.34;98499.13;5111815;28;20054;-79
2021/06/01 03:44:55;;;;;;;2.28;1.90;;;;;;;14.73;60.69;98502.38;5111234;28;20047;-80
2021/06/01 03:47:21;;;;;;;2.42;2.22;;;;;;;15.28;57.86;98504.69;5111466;28;20032;-78
2021/06/01 03:49:46;;;;;;;2.60;2.40;;;;;;;15.71;56.69;98500.28;5111692;28;20020;-82
2021/06/01 03:52:11;;;;;;;2.15;1.90;;;;;;;16.23;55.99;98501.97;5111347;28;20485;-80
2021/06/01 03:54:38;;;;;;;3.35;2.30;;;;;;;16.76;54.29;98495.06;5111744;28;20382;-84
2021/06/01 03:57:06;;;;;;;2.70;2.17;;;;;;;17.32;51.95;98496.66;5111725;28;20386;-79
2021/06/01 03:59:32;;;;;;;2.30;2.10;;;;;;;17.75;51.89;98498.06;5110262;28;20023;-80
2021/06/01 04:02:00;;;;;;;7.72;3.15;;;;;;;18.37;49.30;98500.75;5094253;28;20031;-81
2021/06/01 04:04:26;;;;;;;5.50;2.70;;;;;;;18.80;48.41;98506.63;5111261;28;20517;-79
2021/06/01 04:06:51;;;;;;;2.30;1.88;;;;;;;19.25;47.45;98503.97;5111163;28;20019;-76
2021/06/01 04:09:17;;;;;;;2.17;1.92;;;;;;;19.61;46.66;98510.31;5111639;28;20019;-76
2021/06/01 04:11:43;;;;;;;4.47;2.35;;;;;;;19.92;46.00;98506.06;5110751;28;20047;-77
2021/06/01 04:14:08;;;;;;;3.75;1.80;;;;;;;20.41;44.46;98502.09;5112876;28;20020;-79
2021/06/01 04:16:34;;;;;;;2.20;2.00;;;;;;;20.90;43.79;98506.25;5111110;28;20455;-81
2021/06/01 04:18:59;;;;;;;3.60;2.10;;;;;;;21.40;41.16;98496.28;5111272;28;20047;-80
2021/06/01 04:21:25;;;;;;;1.90;1.80;;;;;;;21.69;41.21;98501.47;5111581;28;20073;-80
2021/06/01 04:23:50;;;;;;;1.98;1.88;;;;;;;22.03;40.90;98490.72;5111402;28;20019;-79
2021/06/01 04:26:15;;;;;;;2.00;1.90;;;;;;;22.35;39.98;98491.19;5098991;28;20024;-83
2021/06/01 04:28:41;;;;;;;2.78;2.17;;;;;;;22.73;39.11;98493.22;5102436;28;20084;-79
2021/06/01 04:31:07;;;;;;;2.72;1.58;;;;;;;22.91;38.62;98487.97;5110587;28;20030;-86
2021/06/01 04:33:34;;;;;;;1.77;1.67;;;;;;;23.25;37.80;98487.97;5111333;28;20536;-85
2021/06/01 04:35:59;;;;;;;2.95;1.80;;;;;;;23.42;37.36;98490.09;5112846;28;20444;-86
2021/06/01 04:38:25;;;;;;;2.03;1.83;;;;;;;23.43;36.25;98480.75;5110994;28;20024;-86
2021/06/01 04:40:51;;;;;;;1.80;1.70;;;;;;;23.49;37.12;98486.66;5110773;28;20481;-86
2021/06/01 04:43:17;;;;;;;1.80;1.70;;;;;;;23.61;36.68;98486.34;5110840;28;20107;-85
2021/06/01 04:45:43;;;;;;;1.40;1.30;;;;;;;23.68;36.01;98482.91;5110868;28;20027;-85
2021/06/01 04:48:08;;;;;;;3.88;2.13;;;;;;;23.65;35.75;98476.25;5111028;28;20438;-85
2021/06/01 04:50:34;;;;;;;2.55;1.50;;;;;;;23.61;36.31;98485.59;5113590;28;20023;-86
2021/06/01 04:52:59;;;;;;;1.88;1.65;;;;;;;23.73;36.56;98484.50;5113041;28;20034;-86
2021/06/01 04:55:25;;;;;;;3.75;1.70;;;;;;;23.87;35.58;98489.28;5111218;28;20107;-87
2021/06/01 04:57:50;;;;;;;3.13;1.80;;;;;;;24.00;34.92;98487.84;5110784;28;20034;-85
2021/06/01 05:00:17;;;;;;;2.05;1.80;;;;;;;24.06;35.81;98491.78;5110943;28;20028;-86
2021/06/01 05:02:42;;;;;;;3.35;1.67;;;;;;;24.29;35.10;98483.34;5110590;28;20026;-86
2021/06/01 05:05:08;;;;;;;2.80;1.95;;;;;;;24.20;35.61;98496.53;5110798;28;20019;-85
2021/06/01 05:07:33;;;;;;;1.80;1.58;;;;;;;24.39;35.60;98498.22;5110400;28;20019;-86
2021/06/01 05:10:03;;;;;;;1.55;1.45;;;;;;;24.60;34.69;98489.34;5110933;28;20066;-86
2021/06/01 05:12:29;;;;;;;2.65;1.38;;;;;;;24.63;34.25;98490.50;5110928;28;20467;-86
2021/06/01 05:14:55;;;;;;;4.47;2.72;;;;;;;24.61;34.62;98485.44;5110503;28;20020;-86
2021/06/01 05:17:20;;;;;;;3.97;1.98;;;;;;;24.41;33.96;98484.97;5111023;28;20025;-87
2021/06/01 05:19:46;;;;;;;5.63;1.70;;;;;;;24.23;35.81;98487.59;5110453;28;20563;-85
2021/06/01 05:22:12;;;;;;;3.83;2.13;;;;;;;24.19;35.56;98484.06;5110548;28;20047;-86
2021/06/01 05:24:38;;;;;;;3.38;1.70;;;;;;;24.23;34.59;98481.34;5110672;28;20030;-86
2021/06/01 05:27:05;;;;;;;2.10;1.92;;;;;;;24.28;34.94;98483.72;5111111;28;20024;-84
2021/06/01 05:29:31;;;;;;;2.25;1.52;;;;;;;24.35;34.78;98481.03;5111346;28;20029;-84
2021/06/01 05:32:08;;;;;;;2.47;1.67;;;;;;;24.44;34.77;98475.22;5113396;28;20034;-85
2021/06/01 05:34:37;;;;;;;3.25;1.83;;;;;;;24.41;35.02;98484.97;5128853;28;20486;-84
2021/06/01 05:37:02;;;;;;;4.85;1.77;;;;;;;24.44;35.56;98488.88;5132486;28;20095;-86
2021/06/01 05:39:28;;;;;;;1.98;1.88;;;;;;;24.36;34.89;98479.06;5133211;28;20045;-84
2021/06/01 05:41:53;;;;;;;5.30;2.58;;;;;;;24.25;35.35;98477.06;5130850;28;20111;-85
2021/06/01 05:44:19;;;;;;;2.63;2.42;;;;;;;24.25;35.61;98479.78;5124159;28;20023;-85
2021/06/01 05:46:44;;;;;;;2.30;2.10;;;;;;;24.29;36.06;98477.88;5120350;28;20020;-84
2021/06/01 05:49:10;;;;;;;3.25;1.83;;;;;;;24.41;36.44;98471.31;5122519;28;20027;-83
2021/06/01 05:51:37;;;;;;;2.22;2.03;;;;;;;24.57;35.65;98481.13;5121605;28;20020;-84
2021/06/01 05:54:04;;;;;;;3.17;2.08;;;;;;;24.81;35.61;98470.72;5121328;28;20114;-84
2021/06/01 05:56:30;;;;;;;4.97;2.10;;;;;;;24.85;35.21;98466.81;5118610;28;20027;-84
2021/06/01 05:58:55;;;;;;;2.33;2.13;;;;;;;24.83;35.56;98476.56;5117171;28;20081;-83
2021/06/01 06:01:21;;;;;;;2.83;1.95;;;;;;;25.02;35.71;98473.47;5116742;28;20122;-83
2021/06/01 06:03:46;;;;;;;2.90;2.60;;;;;;;25.14;34.67;98480.53;5114994;28;20032;-83
2021/06/01 06:06:13;;;;;;;3.47;1.75;;;;;;;25.06;35.46;98471.56;5115329;28;20020;-84
2021/06/01 06:08:38;;;;;;;2.53;2.33;;;;;;;25.06;34.61;98482.50;5114389;28;20466;-84
2021/06/01 06:11:04;;;;;;;2.20;2.00;;;;;;;25.02;34.93;98478.94;5114526;28;20031;-84
2021/06/01 06:13:30;;;;;;;6.18;3.15;;;;;;;25.03;34.20;98471.53;5114148;28;20024;-84
2021/06/01 06:15:55;;;;;;;2.50;2.30;;;;;;;25.04;34.72;98476.63;5113823;28;20055;-83
2021/06/01 06:18:30;;;;;;;3.83;2.10;;;;;;;24.69;34.41;98469.88;5113968;28;20398;-83
2021/06/01 06:21:04;;;;;;;1.95;1.85;;;;;;;24.48;35.78;98467.03;5113748;28;20534;-83
2021/06/01 06:23:31;;;;;;;4.43;1.80;;;;;;;24.46;35.60;98478.34;5114056;28;20028;-84
2021/06/01 06:25:57;;;;;;;5.05;2.08;;;;;;;24.44;34.64;98473.25;5113292;28;20064;-83
2021/06/01 06:28:23;;;;;;;3.60;1.98;;;;;;;24.16;35.06;98476.63;5113841;28;20035;-84
2021/06/01 06:30:48;;;;;;;1.83;1.73;;;;;;;24.02;35.31;98482.00;5113547;28;20110;-84
2021/06/01 06:33:14;;;;;;;5.30;1.95;;;;;;;23.76;35.90;98473.59;5113793;28;20055;-84
2021/06/01 06:35:39;;;;;;;3.88;1.85;;;;;;;23.60;36.54;98473.09;5113637;28;20015;-84
2021/06/01 06:38:05;;;;;;;2.40;1.88;;;;;;;23.60;36.53;98476.59;5113482;28;20039;-84
2021/06/01 06:40:30;;;;;;;1.65;1.55;;;;;;;23.43;36.73;98477.25;5113588;28;20118;-84
2021/06/01 06:42:57;;;;;;;1.70;1.60;;;;;;;23.45;36.72;98475.69;5113288;28;20028;-84
2021/06/01 06:45:24;;;;;;;1.90;1.80;;;;;;;23.39;36.68;98477.19;5113911;28;20023;-83
2021/06/01 06:50:18;;;;;;;2.53;1.95;;;;;;;23.27;35.84;98480.22;5123195;28;20051;-84
2021/06/01 06:52:44;;;;;;;1.35;1.25;;;;;;;23.20;35.02;98488.31;5114455;28;20023;-83
2021/06/01 06:55:11;;;;;;;1.75;1.65;;;;;;;22.95;35.42;98486.06;5113644;28;20011;-83
2021/06/01 06:57:39;;;;;;;9.38;2.00;;;;;;;22.81;36.65;98487.50;5113339;28;20430;-84
2021/06/01 07:00:10;;;;;;;1.42;1.33;;;;;;;22.64;36.35;98482.59;5112586;28;20115;-83
2021/06/01 07:02:36;;;;;;;6.68;1.77;;;;;;;22.42;37.48;98487.00;5113242;28;20055;-84
2021/06/01 07:05:04;;;;;;;2.03;1.42;;;;;;;22.22;38.42;98485.16;5112879;28;20076;-84
2021/06/01 07:07:29;;;;;;;1.75;1.48;;;;;;;22.20;38.11;98486.69;5113110;28;20197;-84
2021/06/01 07:09:55;;;;;;;1.48;1.40;;;;;;;21.98;38.19;98485.59;5112634;28;20055;-84
2021/06/01 07:12:21;;;;;;;5.40;1.63;;;;;;;21.79;38.65;98483.72;5112988;28;20024;-83
2021/06/01 07:15:00;;;;;;;3.65;1.98;;;;;;;21.75;39.28;98483.69;5112905;28;20019;-84
2021/06/01 07:17:25;;;;;;;2.05;1.23;;;;;;;21.70;38.87;98481.28;5112983;28;20027;-83
2021/06/01 07:19:54;;;;;;;2.30;1.67;;;;;;;21.46;39.56;98483.19;5112603;28;20026;-83
2021/06/01 07:22:20;;;;;;;1.65;1.23;;;;;;;21.44;38.38;98480.81;5112825;28;20393;-83
2021/06/01 07:24:46;;;;;;;1.48;1.27;;;;;;;21.39;38.48;98475.69;5112461;28;20110;-83
2021/06/01 07:27:12;;;;;;;2.35;1.13;;;;;;;21.36;39.79;98481.06;5112358;28;20030;-84
2021/06/01 07:29:37;;;;;;;3.15;1.77;;;;;;;21.33;38.83;98479.06;5112475;28;20406;-84
2021/06/01 07:32:03;;;;;;;2.17;1.65;;;;;;;21.28;39.14;98477.44;5112298;28;20505;-83
2021/06/01 07:34:29;;;;;;;1.48;1.38;;;;;;;21.23;39.40;98472.31;5112272;28;20545;-83
2021/06/01 07:36:54;;;;;;;2.85;1.35;;;;;;;21.25;39.26;98480.88;5112239;28;20489;-83
2021/06/01 07:39:20;;;;;;;2.53;1.75;;;;;;;21.18;40.44;98469.84;5112419;28;20027;-83
2021/06/01 07:41:46;;;;;;;2.00;1.63;;;;;;;21.14;41.48;98482.63;5111876;28;20447;-83
2021/06/01 07:44:11;;;;;;;1.92;1.73;;;;;;;21.11;39.22;98465.88;5112597;28;20033;-83
2021/06/01 07:46:37;;;;;;;2.95;1.50;;;;;;;21.11;39.88;98470.53;5112983;28;20481;-83
2021/06/01 07:49:03;;;;;;;1.83;1.58;;;;;;;21.07;40.06;98470.47;5112116;28;20482;-83
2021/06/01 07:51:28;;;;;;;1.50;1.40;;;;;;;21.02;39.92;98486.28;5112922;28;20027;-83
2021/06/01 07:53:59;;;;;;;1.40;1.30;;;;;;;20.95;39.92;98479.56;5112150;28;20039;-83
2021/06/01 07:56:25;;;;;;;1.30;1.20;;;;;;;20.88;39.36;98478.66;5112137;28;20026;-83
2021/06/01 07:58:51;;;;;;;1.38;1.27;;;;;;;20.84;40.54;98481.28;5111891;28;20046;-84
2021/06/01 08:01:17;;;;;;;1.50;1.38;;;;;;;20.80;40.22;98485.88;5112141;28;20031;-84
2021/06/01 08:03:42;;;;;;;1.35;1.20;;;;;;;20.89;40.41;98488.38;5111723;28;20111;-83
2021/06/01 08:06:09;;;;;;;1.35;1.23;;;;;;;20.88;40.24;98486.81;5112144;28;20461;-82
2021/06/01 08:08:35;;;;;;;1.35;1.25;;;;;;;20.90;40.56;98492.66;5112251;28;20036;-83
2021/06/01 08:11:00;;;;;;;2.80;1.73;;;;;;;20.81;40.93;98494.81;5110858;28;20028;-83
2021/06/01 08:13:27;;;;;;;1.70;1.60;;;;;;;20.81;41.90;98497.53;5112084;28;20514;-84
2021/06/01 08:15:54;;;;;;;3.50;1.42;;;;;;;20.73;40.93;98497.38;5111630;28;20031;-83
2021/06/01 08:18:22;;;;;;;8.43;1.98;;;;;;;20.66;41.11;98499.16;5112983;28;20027;-84
2021/06/01 08:21:07;;;;;;;1.85;1.42;;;;;;;20.56;40.60;98505.94;5111524;28;20486;-83
2021/06/01 08:23:33;;;;;;;1.60;1.50;;;;;;;20.50;40.57;98499.19;5111553;28;20434;-83
2021/06/01 08:25:59;;;;;;;1.40;1.30;;;;;;;20.51;40.99;98498.03;5110925;28;20051;-83
2021/06/01 08:28:24;;;;;;;2.22;1.98;;;;;;;20.47;41.65;98487.91;5111491;28;20019;-83
2021/06/01 08:30:52;;;;;;;1.70;1.60;;;;;;;20.55;42.32;98488.81;5111067;28;20057;-83
2021/06/01 08:33:24;;;;;;;1.50;1.40;;;;;;;20.53;41.89;98491.13;5089243;27;20392;-85
2021/06/01 08:35:50;;;;;;;2.95;2.47;;;;;;;20.61;41.04;98481.97;5087509;28;20032;-85
2021/06/01 08:38:17;;;;;;;1.75;1.45;;;;;;;20.67;41.17;98487.91;5087461;28;20033;-85
2021/06/01 08:40:49;;;;;;;4.35;1.50;;;;;;;20.72;41.39;98481.44;5087564;28;20024;-85
2021/06/01 08:43:24;;;;;;;1.60;1.40;;;;;;;20.80;41.20;98477.72;5087112;28;20044;-85
2021/06/01 08:45:54;;;;;;;2.10;1.90;;;;;;;20.87;40.34;98477.88;5086925;28;20479;-85
2021/06/01 08:48:20;;;;;;;2.15;1.30;;;;;;;20.92;41.04;98476.78;5088937;28;20036;-85
2021/06/01 08:50:49;;;;;;;1.33;1.23;;;;;;;20.94;41.04;98483.41;5087159;28;20058;-85
2021/06/01 08:53:16;;;;;;;3.58;1.48;;;;;;;21.01;40.17;98471.13;5087156;28;20418;-83
2021/06/01 08:55:43;;;;;;;1.33;1.10;;;;;;;21.02;39.74;98470.75;5087094;28;20047;-84
2021/06/01 08:58:16;;;;;;;1.33;1.23;;;;;;;21.00;39.95;98467.63;5086797;28;20398;-84
2021/06/01 09:00:42;;;;;;;1.20;1.20;;;;;;;20.89;39.97;98489.16;5086847;28;20074;-85
2021/06/01 09:03:10;;;;;;;3.88;1.45;;;;;;;20.86;39.79;98483.66;5086721;28;20024;-84
2021/06/01 09:05:36;;;;;;;1.42;1.33;;;;;;;20.85;39.81;98479.34;5086986;28;20020;-84
2021/06/01 09:08:10;;;;;;;2.08;1.50;;;;;;;20.87;39.80;98472.44;5086900;28;20051;-85
2021/06/01 09:10:59;;;;;;;1.50;1.40;;;;;;;20.93;40.73;98472.91;5086772;28;20510;-84
2021/06/01 09:13:54;;;;;;;1.30;1.00;;;;;;;20.93;40.69;98476.44;5086902;28;20020;-84
2021/06/01 09:22:01;;;;;;;1.48;1.38;;;;;;;20.81;40.90;98468.41;5087772;28;20403;-84
2021/06/01 09:24:27;;;;;;;1.90;1.70;;;;;;;20.80;42.43;98469.56;5086725;28;20028;-84
2021/06/01 09:26:59;;;;;;;3.90;1.80;;;;;;;20.86;41.53;98473.56;5087226;28;20024;-85
2021/06/01 09:29:27;;;;;;;4.50;1.50;;;;;;;20.90;41.47;98463.56;5086476;28;20024;-85
2021/06/01 09:32:17;;;;;;;1.40;1.30;;;;;;;20.98;40.27;98459.03;5085843;28;20438;-84
2021/06/01 09:34:49;;;;;;;1.98;1.88;;;;;;;21.06;41.22;98455.28;5086362;28;20032;-85
2021/06/01 09:37:23;;;;;;;2.00;1.80;;;;;;;21.09;40.99;98465.47;5086363;28;20024;-85
2021/06/01 09:40:21;;;;;;;3.20;1.73;;;;;;;21.02;40.49;98450.94;5086088;28;20028;-84
2021/06/01 09:42:50;;;;;;;5.63;1.58;;;;;;;21.09;40.21;98453.78;5060955;28;20487;-84
2021/06/01 09:45:21;;;;;;;1.88;1.65;;;;;;;21.17;40.77;98444.63;5072648;28;20120;-84
2021/06/01 09:47:49;;;;;;;2.70;1.55;;;;;;;21.19;39.61;98447.78;5072590;28;20024;-84
2021/06/01 09:50:30;;;;;;;1.00;1.00;;;;;;;21.19;38.02;98446.97;5072547;28;20024;-84
2021/06/01 09:53:01;;;;;;;1.10;1.10;;;;;;;21.12;37.57;98442.19;5072118;28;20119;-85
2021/06/01 09:55:34;;;;;;;1.80;1.67;;;;;;;21.18;40.01;98446.19;5072501;28;20052;-84
2021/06/01 09:58:02;;;;;;;1.60;1.50;;;;;;;21.21;39.73;98445.44;5072133;28;20082;-85
2021/06/01 10:00:32;;;;;;;2.97;1.45;;;;;;;21.26;39.72;98447.91;5072398;28;20460;-84
2021/06/01 10:03:03;;;;;;;1.10;1.10;;;;;;;21.33;39.85;98447.22;5072228;28;20164;-85
2021/06/01 10:05:37;;;;;;;1.25;1.17;;;;;;;21.34;39.28;98440.63;5072377;28;20085;-84
2021/06/01 10:08:13;;;;;;;2.05;1.65;;;;;;;21.30;39.27;98453.41;5072100;28;20024;-84
2021/06/01 10:10:39;;;;;;;1.38;1.00;;;;;;;21.25;39.97;98446.31;5072162;28;20178;-84
2021/06/01 10:13:07;;;;;;;1.42;1.25;;;;;;;21.22;40.39;98446.25;5072518;28;20020;-84
2021/06/01 10:15:34;;;;;;;1.95;1.50;;;;;;;21.21;40.43;98442.72;5072522;28;20022;-83
2021/06/01 10:18:04;;;;;;;3.30;1.40;;;;;;;21.19;39.68;98434.19;5072108;28;20024;-84
2021/06/01 10:20:32;;;;;;;1.75;1.15;;;;;;;21.16;39.57;98436.81;5072666;28;20061;-85
2021/06/01 10:22:58;;;;;;;1.20;1.10;;;;;;;21.24;38.40;98430.38;5072575;28;20464;-85
2021/06/01 10:25:24;;;;;;;2.65;1.52;;;;;;;21.28;39.22;98444.81;5073511;28;20033;-85
2021/06/01 10:27:51;;;;;;;1.75;1.30;;;;;;;21.28;37.69;98433.94;5072111;28;20032;-85
2021/06/01 10:30:17;;;;;;;1.30;1.27;;;;;;;21.27;38.91;98440.50;5071941;28;20066;-85
2021/06/01 10:32:51;;;;;;;2.20;1.13;;;;;;;21.31;38.29;98424.25;5071754;28;20497;-85
2021/06/01 10:35:20;;;;;;;1.95;1.10;;;;;;;21.35;38.63;98436.78;5071800;28;20036;-85
2021/06/01 10:51:56;;;;;;;3.92;1.27;;;;;;;21.39;38.48;98423.22;5073012;28;20391;-84
2021/06/01 10:54:40;;;;;;;1.90;1.60;;;;;;;21.34;38.59;98412.66;5072551;28;20154;-84
2021/06/01 10:57:07;;;;;;;1.38;1.30;;;;;;;21.32;39.36;98428.56;5071208;28;20109;-84
2021/06/01 10:59:57;;;;;;;1.60;1.50;;;;;;;21.28;39.68;98421.09;5071220;28;20509;-82
2021/06/01 11:02:25;;;;;;;1.85;1.70;;;;;;;21.26;40.04;98417.97;5071459;28;20029;-83
2021/06/01 11:05:14;;;;;;;2.90;1.52;;;;;;;21.25;39.23;98404.72;5071811;28;20071;-83
2021/06/01 11:07:53;;;;;;;1.17;1.17;;;;;;;21.24;38.76;98408.63;5074639;28;20029;-82
2021/06/01 11:10:38;;;;;;;1.40;1.30;;;;;;;21.23;41.04;98407.81;5076144;28;20024;-82
2021/06/01 11:13:05;;;;;;;1.58;1.48;;;;;;;21.24;40.55;98412.13;5077308;28;20094;-82
2021/06/01 11:15:33;;;;;;;1.50;1.40;;;;;;;21.21;40.05;98412.81;5073629;28;20365;-82
2021/06/01 11:18:24;;;;;;;1.48;1.38;;;;;;;21.23;39.98;98404.31;5071548;28;20020;-81
2021/06/01 11:21:28;;;;;;;1.80;1.33;;;;;;;21.22;40.88;98411.69;5071485;28;20060;-82
2021/06/01 11:35:10;;;;;;;1.73;1.25;;;;;;;21.00;38.95;98407.81;5072260;28;19931;-82
2021/06/01 11:37:42;;;;;;;1.17;1.08;;;;;;;20.90;38.19;98401.03;5071396;28;20168;-83
2021/06/01 11:40:31;;;;;;;1.08;1.00;;;;;;;20.86;39.82;98407.56;5071100;28;20028;-83
2021/06/01 11:43:11;;;;;;;1.30;1.10;;;;;;;20.82;40.68;98404.75;5072039;28;20491;-84
2021/06/01 11:46:39;;;;;;;1.55;1.30;;;;;;;20.86;41.37;98402.13;5091622;28;20059;-83
2021/06/01 11:51:16;;;;;;;1.17;1.17;;;;;;;20.86;39.63;98393.97;5092757;28;20476;-83
2021/06/01 11:53:59;;;;;;;1.48;1.35;;;;;;;20.90;40.21;98397.53;5073196;28;20035;-82
2021/06/01 11:56:57;;;;;;;1.30;1.20;;;;;;;20.85;37.62;98395.09;5072412;28;20395;-82
2021/06/01 12:20:53;;;;;;;0.70;0.70;;;;;;;20.64;39.00;98426.94;5071108;28;20426;-82
2021/06/01 12:23:31;;;;;;;1.08;0.95;;;;;;;20.52;39.52;98421.66;5069772;28;20020;-82
2021/06/01 12:26:06;;;;;;;1.50;1.48;;;;;;;20.59;39.54;98424.50;5070037;28;20033;-84
2021/06/01 12:31:24;;;;;;;0.90;0.90;;;;;;;20.64;39.36;98417.97;5070821;28;20035;-83
2021/06/01 12:34:00;;;;;;;1.55;1.45;;;;;;;20.71;40.26;98423.56;5070079;28;20047;-83
2021/06/01 12:45:04;;;;;;;1.60;1.50;;;;;;;20.74;38.73;98417.44;5071057;28;20380;-83
2021/06/01 13:12:17;;;;;;;2.08;0.93;;;;;;;21.15;38.31;98400.69;5072098;28;20059;-82
2021/06/01 13:20:47;;;;;;;1.25;1.10;;;;;;;21.29;39.21;98430.06;5074821;28;20078;-82
2021/06/01 13:39:23;;;;;;;0.60;0.60;;;;;;;20.71;39.37;98463.53;5074142;28;20090;-83
2021/06/01 13:47:09;;;;;;;0.65;0.60;;;;;;;20.36;39.57;98484.19;5073817;28;20048;-83
2021/06/01 13:55:09;;;;;;;3.97;0.70;;;;;;;20.03;41.32;98487.31;5074038;28;20066;-84